Time;durP1;ratioP1;P1;durP2;ratioP2;P2;SDS_P1;SDS_P2;PMS_P1;PMS_P2;Temp;Humidity;BMP_temperature;BMP_pressure;BME280_temperature;BME280_humidity;BME280_pressure;Samples;Min_cycle;Max_cycle;Signal;HPM_P1;HPM_P2
2022/11/07 00:01:53;;;;;;;5.72;1.90;;;11.90;99.90;;;;;;4120132;28;20454;-62
2022/11/07 00:03:54;;;;;;;4.72;1.73;;;11.90;99.90;;;;;;4128001;28;20042;-62
2022/11/07 00:05:55;;;;;;;7.25;2.03;;;11.90;99.90;;;;;;4120478;28;20026;-62
2022/11/07 00:07:55;;;;;;;4.57;1.50;;;12.00;99.90;;;;;;4125803;28;20088;-62
2022/11/07 00:09:56;;;;;;;6.50;2.15;;;11.90;99.90;;;;;;4125707;28;20050;-63
2022/11/07 00:11:57;;;;;;;3.50;1.80;;;11.90;99.90;;;;;;4127247;28;20050;-62
2022/11/07 00:13:57;;;;;;;5.63;1.85;;;11.90;99.90;;;;;;4126456;28;20101;-62
2022/11/07 00:15:59;;;;;;;4.13;1.60;;;11.90;99.90;;;;;;4126622;28;20040;-62
2022/11/07 00:18:00;;;;;;;7.28;2.15;;;12.00;99.90;;;;;;4122887;28;20035;-62
2022/11/07 00:20:00;;;;;;;4.63;1.50;;;12.00;99.90;;;;;;4126295;28;20045;-61
2022/11/07 00:22:01;;;;;;;2.60;1.50;;;12.00;99.90;;;;;;4127262;28;20556;-62
2022/11/07 00:24:02;;;;;;;2.88;1.65;;;11.90;99.90;;;;;;4127629;28;20402;-62
2022/11/07 00:26:05;;;;;;;6.22;1.75;;;12.00;99.90;;;;;;4127406;28;20122;-62
2022/11/07 00:28:05;;;;;;;5.03;1.85;;;12.00;99.90;;;;;;4128246;28;20089;-62
2022/11/07 00:30:06;;;;;;;6.55;2.47;;;12.00;99.90;;;;;;4125412;28;20026;-63
2022/11/07 00:32:07;;;;;;;4.15;1.73;;;11.90;99.90;;;;;;4127822;28;20034;-62
2022/11/07 00:34:07;;;;;;;2.88;1.70;;;11.90;99.90;;;;;;4126803;28;20482;-62
2022/11/07 00:36:16;;;;;;;4.68;2.03;;;12.00;99.90;;;;;;4127169;28;20034;-62
2022/11/07 00:38:17;;;;;;;4.40;1.75;;;11.90;99.90;;;;;;4127133;28;20050;-63
2022/11/07 00:40:18;;;;;;;5.28;1.90;;;11.90;99.90;;;;;;4125057;28;20038;-63
2022/11/07 00:42:18;;;;;;;5.22;1.80;;;11.90;99.90;;;;;;4120565;28;20489;-62
2022/11/07 00:44:19;;;;;;;5.72;2.28;;;12.00;99.90;;;;;;4127790;28;20482;-62
2022/11/07 00:46:20;;;;;;;2.53;1.40;;;11.90;99.90;;;;;;4127209;28;20457;-62
2022/11/07 00:48:20;;;;;;;3.97;1.80;;;11.80;99.90;;;;;;4129987;28;20034;-62
2022/11/07 00:50:21;;;;;;;3.85;1.77;;;11.90;99.90;;;;;;4126467;28;20046;-62
2022/11/07 00:52:21;;;;;;;3.83;1.50;;;11.90;99.90;;;;;;4130470;28;20130;-62
2022/11/07 00:54:22;;;;;;;5.25;1.85;;;11.80;99.90;;;;;;4130507;28;20053;-62
2022/11/07 00:56:24;;;;;;;4.68;1.88;;;11.80;99.90;;;;;;4128472;28;20097;-62
2022/11/07 00:58:24;;;;;;;5.70;1.90;;;11.90;99.90;;;;;;4130885;28;20117;-62
2022/11/07 01:00:25;;;;;;;4.78;1.70;;;11.90;99.90;;;;;;4127915;28;20045;-62
2022/11/07 01:02:26;;;;;;;7.05;2.10;;;11.90;99.90;;;;;;4130233;28;20053;-62
2022/11/07 01:06:46;;;;;;;4.97;1.88;;;11.90;99.90;;;;;;4127176;28;20026;-65
2022/11/07 01:08:47;;;;;;;6.38;2.03;;;11.80;99.90;;;;;;4128579;28;20072;-62
2022/11/07 01:10:47;;;;;;;6.07;2.05;;;11.80;99.90;;;;;;4125405;28;20579;-62
2022/11/07 01:12:48;;;;;;;6.90;2.28;;;11.80;99.90;;;;;;4130666;28;20043;-62
2022/11/07 01:14:48;;;;;;;3.65;1.50;;;11.80;99.90;;;;;;4125966;28;20030;-62
2022/11/07 01:16:49;;;;;;;4.95;1.73;;;11.80;99.90;;;;;;4126549;28;20034;-62
2022/11/07 01:18:50;;;;;;;6.07;2.13;;;11.80;99.90;;;;;;4126963;28;20046;-62
2022/11/07 01:20:51;;;;;;;9.57;2.15;;;11.70;99.90;;;;;;4129546;28;20121;-62
2022/11/07 01:22:52;;;;;;;9.32;2.22;;;11.80;99.90;;;;;;4127522;28;20031;-62
2022/11/07 01:24:52;;;;;;;8.15;2.20;;;11.80;99.90;;;;;;4130164;28;20046;-62
2022/11/07 01:26:53;;;;;;;5.35;2.00;;;11.80;99.90;;;;;;4129748;28;20080;-62
2022/11/07 01:28:54;;;;;;;2.35;1.30;;;11.70;99.90;;;;;;4129595;28;20054;-62
2022/11/07 01:30:54;;;;;;;5.65;1.77;;;11.70;99.90;;;;;;4129217;28;20037;-62
2022/11/07 01:32:55;;;;;;;5.75;1.70;;;11.70;99.90;;;;;;4130273;28;20367;-62
2022/11/07 01:34:56;;;;;;;4.63;1.88;;;11.70;99.90;;;;;;4130358;28;20085;-62
2022/11/07 01:36:56;;;;;;;3.70;1.65;;;11.70;99.90;;;;;;4129086;28;20089;-62
2022/11/07 01:38:57;;;;;;;4.40;1.85;;;11.60;99.90;;;;;;4128187;28;20030;-62
2022/11/07 01:43:17;;;;;;;3.88;1.40;;;11.70;99.90;;;;;;4127453;28;20034;-62
2022/11/07 01:45:22;;;;;;;5.15;1.85;;;11.70;99.90;;;;;;4129436;28;20129;-62
2022/11/07 01:47:27;;;;;;;4.43;1.90;;;11.70;99.90;;;;;;4128514;28;20041;-62
2022/11/07 01:49:33;;;;;;;3.70;1.52;;;11.70;99.90;;;;;;4126731;28;20117;-61
2022/11/07 01:51:59;;;;;;;3.83;1.55;;;11.70;99.90;;;;;;4128247;28;20049;-62
2022/11/07 01:54:01;;;;;;;5.45;1.70;;;11.60;99.90;;;;;;4126816;28;20100;-62
2022/11/07 01:56:03;;;;;;;4.07;1.55;;;11.60;99.90;;;;;;4126717;28;20031;-62
2022/11/07 01:58:06;;;;;;;;;;;11.70;99.90;;;;;;4129884;28;20072;-62
2022/11/07 02:00:10;;;;;;;6.70;1.70;;;11.70;99.90;;;;;;4126876;28;20266;-63
2022/11/07 02:02:10;;;;;;;4.32;1.60;;;11.60;99.90;;;;;;4129328;28;20412;-62
2022/11/07 02:04:11;;;;;;;2.40;1.30;;;11.60;99.90;;;;;;4129645;28;20026;-62
2022/11/07 02:06:21;;;;;;;4.53;1.98;;;11.60;99.90;;;;;;4129098;28;20030;-62
2022/11/07 02:08:23;;;;;;;4.93;1.52;;;11.60;99.90;;;;;;4129680;28;20346;-62
2022/11/07 02:10:25;;;;;;;4.75;1.75;;;11.60;99.90;;;;;;4123416;28;20053;-62
2022/11/07 02:12:27;;;;;;;2.70;1.20;;;11.50;99.90;;;;;;4129070;28;20038;-62
2022/11/07 02:14:28;;;;;;;3.38;1.40;;;11.60;99.90;;;;;;4134299;28;20042;-62
2022/11/07 02:16:31;;;;;;;8.93;1.88;;;11.50;99.90;;;;;;4127635;28;20043;-66
2022/11/07 02:18:35;;;;;;;5.38;1.65;;;11.50;99.90;;;;;;4128109;28;20042;-61
2022/11/07 02:20:36;;;;;;;3.92;1.40;;;11.50;99.90;;;;;;4127648;28;20486;-61
2022/11/07 02:22:43;;;;;;;4.82;1.75;;;11.60;99.90;;;;;;4128594;28;20065;-62
2022/11/07 02:24:45;;;;;;;4.25;1.58;;;11.60;99.90;;;;;;4128597;28;20070;-62
2022/11/07 02:26:45;;;;;;;5.43;1.98;;;11.60;99.90;;;;;;4126819;28;20042;-62
2022/11/07 02:28:47;;;;;;;4.93;2.05;;;11.60;99.90;;;;;;4128171;28;20034;-62
2022/11/07 02:30:47;;;;;;;4.43;1.33;;;11.50;99.90;;;;;;4126348;28;20374;-62
2022/11/07 02:32:48;;;;;;;3.65;1.58;;;11.60;99.90;;;;;;4143353;28;20088;-62
2022/11/07 02:35:04;;;;;;;4.18;1.52;;;11.60;99.90;;;;;;4128436;28;20050;-62
2022/11/07 02:37:23;;;;;;;6.68;1.80;;;11.60;99.90;;;;;;4127914;28;20042;-62
2022/11/07 02:39:24;;;;;;;6.88;1.70;;;11.60;99.90;;;;;;4126374;28;20038;-62
2022/11/07 02:41:29;;;;;;;8.98;2.00;;;11.60;99.90;;;;;;4127571;28;20030;-62
2022/11/07 02:43:31;;;;;;;7.13;1.80;;;11.60;99.90;;;;;;4126682;28;20081;-62
2022/11/07 02:45:35;;;;;;;4.95;1.67;;;11.70;99.90;;;;;;4127469;28;20294;-62
2022/11/07 02:47:36;;;;;;;4.20;1.42;;;11.70;99.90;;;;;;4123443;28;20499;-62
2022/11/07 02:49:36;;;;;;;5.05;1.50;;;11.70;99.90;;;;;;4127319;28;20042;-62
2022/11/07 02:51:37;;;;;;;5.75;1.70;;;11.70;99.90;;;;;;4126628;28;20046;-62
2022/11/07 02:53:38;;;;;;;4.13;1.33;;;11.80;99.90;;;;;;4127452;28;20034;-62
2022/11/07 02:55:38;;;;;;;6.15;1.65;;;11.70;99.90;;;;;;4126252;28;20381;-62
2022/11/07 02:57:39;;;;;;;3.83;1.30;;;11.70;99.90;;;;;;4125546;28;20045;-61
2022/11/07 02:59:40;;;;;;;4.50;1.90;;;11.70;99.90;;;;;;4128176;28;20430;-62
2022/11/07 03:01:40;;;;;;;5.05;1.55;;;11.70;99.90;;;;;;4127984;28;20457;-61
2022/11/07 03:03:46;;;;;;;3.70;1.40;;;11.70;99.90;;;;;;4124309;28;20382;-62
2022/11/07 03:05:46;;;;;;;5.47;1.73;;;11.80;99.90;;;;;;4127998;28;20034;-62
2022/11/07 03:07:48;;;;;;;5.60;1.63;;;11.70;99.90;;;;;;4127843;28;20109;-62
2022/11/07 03:09:49;;;;;;;6.20;1.80;;;11.70;99.90;;;;;;4140891;28;20511;-62
2022/11/07 03:11:50;;;;;;;4.93;1.65;;;11.70;99.90;;;;;;4124749;28;20034;-62
2022/11/07 03:13:50;;;;;;;2.08;1.35;;;11.70;99.90;;;;;;4127336;28;20058;-62
2022/11/07 03:15:52;;;;;;;5.70;1.92;;;11.60;99.90;;;;;;4127819;28;20473;-62
2022/11/07 03:17:53;;;;;;;10.50;2.50;;;11.70;99.90;;;;;;4128434;28;20027;-62
2022/11/07 03:19:53;;;;;;;7.55;1.88;;;11.70;99.90;;;;;;4126981;28;20509;-62
2022/11/07 03:21:54;;;;;;;6.97;1.40;;;11.70;99.90;;;;;;4128197;28;20109;-61
2022/11/07 03:23:55;;;;;;;4.55;1.73;;;11.70;99.90;;;;;;4128099;28;20026;-62
2022/11/07 03:25:56;;;;;;;6.32;1.80;;;11.70;99.90;;;;;;4127793;28;20038;-62
2022/11/07 03:27:56;;;;;;;3.90;1.63;;;11.70;99.90;;;;;;4128579;28;20045;-62
2022/11/07 03:29:57;;;;;;;9.13;2.35;;;11.70;99.90;;;;;;4126479;28;20030;-62
2022/11/07 03:31:57;;;;;;;8.38;2.15;;;11.70;99.90;;;;;;4126723;28;20112;-62
2022/11/07 03:33:58;;;;;;;7.90;2.38;;;11.70;99.90;;;;;;4124213;28;20362;-62
2022/11/07 03:35:58;;;;;;;5.22;1.67;;;11.70;99.90;;;;;;4127015;28;20042;-62
2022/11/07 03:37:59;;;;;;;4.60;1.80;;;11.70;99.90;;;;;;4126822;28;20106;-62
2022/11/07 03:40:00;;;;;;;5.45;1.85;;;11.70;99.90;;;;;;4125943;28;20038;-64
2022/11/07 03:42:00;;;;;;;8.05;1.67;;;11.70;99.90;;;;;;4123445;28;20394;-62
2022/11/07 03:44:01;;;;;;;8.07;2.03;;;11.70;99.90;;;;;;4127967;28;20038;-62
2022/11/07 03:46:01;;;;;;;10.55;1.90;;;11.70;99.90;;;;;;4127738;28;20031;-62
2022/11/07 03:48:02;;;;;;;4.22;1.45;;;11.70;99.90;;;;;;4128320;28;20486;-62
2022/11/07 03:50:04;;;;;;;8.90;1.90;;;11.70;99.90;;;;;;4126432;28;20504;-64
2022/11/07 03:52:05;;;;;;;5.40;1.80;;;11.70;99.90;;;;;;4126883;28;20038;-62
2022/11/07 03:54:06;;;;;;;6.97;1.83;;;11.80;99.90;;;;;;4128337;28;20391;-62
2022/11/07 03:56:08;;;;;;;9.25;2.25;;;11.80;99.90;;;;;;4125999;28;20506;-62
2022/11/07 03:58:09;;;;;;;7.70;2.25;;;11.70;99.90;;;;;;4128139;28;20093;-62
2022/11/07 04:00:10;;;;;;;7.75;1.83;;;11.80;99.90;;;;;;4126712;28;20031;-62
2022/11/07 04:02:11;;;;;;;6.40;1.92;;;11.80;99.90;;;;;;4127627;28;20390;-62
2022/11/07 04:04:12;;;;;;;6.43;1.88;;;11.80;99.90;;;;;;4126954;28;20023;-62
2022/11/07 04:06:12;;;;;;;6.22;1.67;;;11.70;99.90;;;;;;4124083;28;20031;-62
2022/11/07 04:08:13;;;;;;;13.82;1.90;;;11.80;99.90;;;;;;4128084;28;20106;-62
2022/11/07 04:10:13;;;;;;;9.15;2.05;;;11.80;99.90;;;;;;4125081;28;20034;-62
2022/11/07 04:19:12;;;;;;;8.20;1.80;;;11.80;99.90;;;;;;4126196;28;20114;-62
2022/11/07 04:21:12;;;;;;;10.13;2.30;;;11.80;99.90;;;;;;4126726;28;20037;-62
2022/11/07 04:23:13;;;;;;;7.47;1.80;;;11.80;99.90;;;;;;4130109;28;20045;-62
2022/11/07 04:25:14;;;;;;;6.15;2.10;;;11.80;99.90;;;;;;4130067;28;20117;-62
2022/11/07 04:29:35;;;;;;;8.50;2.10;;;11.80;99.90;;;;;;4127917;28;20097;-62
2022/11/07 04:31:35;;;;;;;6.70;1.83;;;11.80;99.90;;;;;;4129869;28;20470;-61
2022/11/07 04:33:36;;;;;;;6.55;1.90;;;11.80;99.90;;;;;;4130513;28;20472;-62
2022/11/07 04:35:36;;;;;;;6.22;1.83;;;11.80;99.90;;;;;;4130214;28;20367;-62
2022/11/07 04:37:37;;;;;;;6.72;1.73;;;11.80;99.90;;;;;;4131013;28;20478;-62
2022/11/07 04:39:37;;;;;;;5.82;1.83;;;11.80;99.90;;;;;;4128950;28;20560;-62
2022/11/07 04:41:38;;;;;;;6.25;1.70;;;11.80;99.90;;;;;;4130268;28;20030;-62
2022/11/07 04:43:38;;;;;;;10.90;2.33;;;11.80;99.90;;;;;;4130898;28;20031;-62
2022/11/07 04:45:39;;;;;;;11.10;2.25;;;11.80;99.90;;;;;;4130209;28;20034;-62
2022/11/07 04:47:40;;;;;;;6.45;1.80;;;11.80;99.90;;;;;;4130467;28;20553;-62
2022/11/07 04:49:41;;;;;;;7.50;1.73;;;11.80;99.90;;;;;;4130262;28;20040;-62
2022/11/07 04:51:42;;;;;;;8.60;1.83;;;11.80;99.90;;;;;;4130157;28;20427;-62
2022/11/07 04:53:42;;;;;;;5.57;1.67;;;11.80;99.90;;;;;;4128947;28;20030;-62
2022/11/07 04:55:43;;;;;;;4.32;1.80;;;11.80;99.90;;;;;;4128852;28;20033;-62
2022/11/07 04:57:44;;;;;;;10.35;2.17;;;11.80;99.90;;;;;;4130903;28;20090;-62
2022/11/07 04:59:45;;;;;;;11.13;2.35;;;11.80;99.90;;;;;;4128293;28;20023;-62
2022/11/07 05:01:45;;;;;;;11.02;2.63;;;11.80;99.90;;;;;;4125114;28;20076;-62
2022/11/07 05:03:46;;;;;;;5.40;1.60;;;11.80;99.90;;;;;;4126512;28;20096;-62
2022/11/07 05:05:46;;;;;;;9.38;2.45;;;11.80;99.90;;;;;;4124749;28;20059;-62
2022/11/07 05:07:47;;;;;;;10.02;2.60;;;11.90;99.90;;;;;;4129372;28;20034;-62
2022/11/07 05:09:48;;;;;;;6.10;1.70;;;11.80;99.90;;;;;;4127562;28;20033;-62
2022/11/07 05:11:48;;;;;;;6.47;2.10;;;11.80;99.90;;;;;;4128721;28;20035;-62
2022/11/07 05:13:49;;;;;;;4.55;1.95;;;11.80;99.90;;;;;;4124752;28;20030;-62
2022/11/07 05:15:49;;;;;;;6.22;2.00;;;11.80;99.90;;;;;;4128967;28;20544;-62
2022/11/07 05:17:50;;;;;;;7.93;2.30;;;11.80;99.90;;;;;;4130457;28;20027;-62
2022/11/07 05:19:51;;;;;;;7.30;1.90;;;11.90;99.90;;;;;;4128674;28;20119;-62
2022/11/07 05:23:11;;;;;;;9.27;2.17;;;11.80;99.90;;;;;;4129580;28;20034;-62
2022/11/07 05:24:13;;;;;;;10.27;2.55;;;11.80;99.90;;;;;;4127590;28;20501;-62
2022/11/07 05:26:13;;;;;;;7.68;2.40;;;11.90;99.90;;;;;;4129456;28;20031;-62
2022/11/07 05:28:26;;;;;;;7.18;2.10;;;11.80;99.90;;;;;;4128770;28;20073;-62
2022/11/07 05:30:26;;;;;;;6.45;1.63;;;11.80;99.90;;;;;;4123143;28;20497;-62
2022/11/07 05:32:27;;;;;;;11.35;2.05;;;11.80;99.90;;;;;;4128501;28;20031;-62
2022/11/07 05:34:27;;;;;;;8.68;2.30;;;11.80;99.90;;;;;;4124504;28;20046;-62
2022/11/07 05:36:28;;;;;;;9.73;2.47;;;11.80;99.90;;;;;;4128339;28;20485;-62
2022/11/07 05:38:28;;;;;;;8.20;2.20;;;11.80;99.90;;;;;;4122626;28;20038;-62
2022/11/07 05:40:29;;;;;;;7.35;2.05;;;11.80;99.90;;;;;;4126044;28;20116;-62
2022/11/07 05:42:30;;;;;;;8.88;2.42;;;11.80;99.90;;;;;;4127457;28;20073;-62
2022/11/07 05:44:30;;;;;;;5.22;1.90;;;11.90;99.90;;;;;;4127894;28;20026;-62
2022/11/07 05:46:31;;;;;;;9.55;2.10;;;11.80;99.90;;;;;;4126938;28;20134;-62
2022/11/07 05:48:32;;;;;;;6.60;1.98;;;11.80;99.90;;;;;;4125885;28;20034;-62
2022/11/07 05:50:33;;;;;;;7.20;2.08;;;11.90;99.90;;;;;;4126681;28;20486;-62
2022/11/07 05:52:33;;;;;;;7.97;2.10;;;11.90;99.90;;;;;;4128265;28;20083;-62
2022/11/07 05:54:34;;;;;;;7.70;1.90;;;11.80;99.90;;;;;;4127308;28;20042;-63
2022/11/07 05:56:36;;;;;;;9.90;2.38;;;11.80;99.90;;;;;;4129196;28;20026;-63
2022/11/07 05:58:37;;;;;;;7.95;1.90;;;11.80;99.90;;;;;;4140187;28;20041;-61
2022/11/07 06:00:38;;;;;;;7.25;2.17;;;11.80;99.90;;;;;;4123113;28;21805;-62
2022/11/07 06:02:39;;;;;;;9.47;2.27;;;11.80;99.90;;;;;;4124841;28;20525;-62
2022/11/07 06:04:40;;;;;;;5.07;1.58;;;11.80;99.90;;;;;;4123838;28;20043;-62
2022/11/07 06:06:40;;;;;;;12.65;2.47;;;11.80;99.90;;;;;;4125123;28;20493;-62
2022/11/07 06:08:41;;;;;;;9.82;2.40;;;11.80;99.90;;;;;;4125546;28;20049;-62
2022/11/07 06:10:42;;;;;;;6.00;1.90;;;11.80;99.90;;;;;;4123123;28;20128;-62
2022/11/07 06:12:43;;;;;;;10.25;2.50;;;11.90;99.90;;;;;;4125229;28;20049;-62
2022/11/07 06:14:43;;;;;;;4.95;1.65;;;11.90;99.90;;;;;;4125359;28;20034;-62
2022/11/07 06:16:44;;;;;;;6.68;1.70;;;11.90;99.90;;;;;;4125396;28;20042;-62
2022/11/07 06:18:45;;;;;;;6.70;2.10;;;11.90;99.90;;;;;;4124083;28;20049;-62
2022/11/07 06:20:45;;;;;;;5.68;1.90;;;11.90;99.90;;;;;;4124152;28;21149;-62
2022/11/07 06:22:46;;;;;;;11.77;2.03;;;12.00;99.90;;;;;;4117988;28;20520;-62
2022/11/07 06:24:47;;;;;;;7.38;1.73;;;12.00;99.90;;;;;;4124580;28;20864;-62
2022/11/07 06:26:47;;;;;;;10.13;2.10;;;12.00;99.90;;;;;;4123868;28;20457;-64
2022/11/07 06:28:48;;;;;;;8.82;1.83;;;12.00;99.90;;;;;;4121798;28;20108;-64
2022/11/07 06:30:48;;;;;;;7.28;2.00;;;12.00;99.90;;;;;;4120139;28;20529;-64
2022/11/07 06:32:49;;;;;;;8.32;1.90;;;12.10;99.90;;;;;;4123913;28;20544;-64
2022/11/07 06:34:49;;;;;;;16.77;2.47;;;12.10;99.90;;;;;;4125471;28;20120;-64
2022/11/07 06:36:54;;;;;;;9.88;2.10;;;12.10;99.90;;;;;;4124419;28;20474;-64
2022/11/07 06:38:55;;;;;;;8.38;1.80;;;12.10;99.90;;;;;;4124516;28;20030;-64
2022/11/07 06:41:02;;;;;;;7.88;1.95;;;12.10;99.90;;;;;;4122496;28;20112;-64
2022/11/07 06:43:05;;;;;;;7.63;2.20;;;12.20;99.90;;;;;;4123106;28;20026;-63
2022/11/07 06:45:06;;;;;;;7.85;2.10;;;12.20;99.90;;;;;;4119254;28;20030;-65
2022/11/07 06:47:07;;;;;;;7.78;1.95;;;12.20;99.90;;;;;;4121880;28;20121;-64
2022/11/07 06:49:08;;;;;;;8.15;1.98;;;12.30;99.90;;;;;;4124338;28;20074;-64
2022/11/07 06:51:10;;;;;;;6.75;1.83;;;12.30;99.90;;;;;;4121207;28;20388;-65
2022/11/07 06:53:11;;;;;;;5.18;1.85;;;12.30;99.90;;;;;;4120959;28;20117;-64
2022/11/07 06:55:12;;;;;;;10.65;2.20;;;12.30;99.90;;;;;;4121548;28;20481;-65
2022/11/07 06:57:13;;;;;;;15.73;2.58;;;12.40;99.90;;;;;;4123636;28;20045;-65
2022/11/07 06:59:13;;;;;;;9.35;2.63;;;12.40;99.90;;;;;;4124000;28;20108;-64
2022/11/07 07:01:15;;;;;;;9.27;1.85;;;12.40;99.90;;;;;;4120933;28;20520;-64
2022/11/07 07:03:15;;;;;;;6.85;1.85;;;12.40;99.90;;;;;;4122384;28;20042;-64
2022/11/07 07:05:16;;;;;;;14.75;2.95;;;12.50;99.90;;;;;;4123674;28;20490;-64
2022/11/07 07:07:17;;;;;;;9.25;2.67;;;12.50;99.90;;;;;;4124608;28;20519;-64
2022/11/07 07:09:17;;;;;;;9.32;2.15;;;12.50;99.90;;;;;;4121138;28;20121;-64
2022/11/07 07:11:18;;;;;;;16.20;2.40;;;12.50;99.90;;;;;;4123801;28;20682;-64
2022/11/07 07:13:18;;;;;;;8.82;2.33;;;12.50;99.90;;;;;;4119216;28;20038;-64
2022/11/07 07:15:19;;;;;;;7.25;2.17;;;12.50;99.90;;;;;;4123600;28;20161;-64
2022/11/07 07:17:20;;;;;;;10.73;2.88;;;12.60;99.90;;;;;;4124855;28;20042;-64
2022/11/07 07:19:20;;;;;;;9.07;2.47;;;12.60;99.90;;;;;;4122044;28;20065;-64
2022/11/07 07:21:21;;;;;;;10.68;2.35;;;12.60;99.90;;;;;;4117150;28;20049;-66
2022/11/07 07:23:21;;;;;;;9.02;2.65;;;12.60;99.90;;;;;;4124548;28;20038;-65
2022/11/07 07:25:22;;;;;;;11.63;2.47;;;12.60;99.90;;;;;;4120510;28;20045;-65
2022/11/07 07:27:23;;;;;;;10.30;2.50;;;12.60;99.90;;;;;;4118292;28;20038;-64
2022/11/07 07:29:23;;;;;;;7.97;2.10;;;12.60;99.90;;;;;;4116270;28;20042;-64
2022/11/07 07:31:29;;;;;;;9.73;1.83;;;12.70;99.90;;;;;;4116393;28;20174;-64
2022/11/07 07:33:30;;;;;;;11.10;2.03;;;12.70;99.90;;;;;;4117328;28;20936;-64
2022/11/07 07:35:31;;;;;;;10.38;2.55;;;12.70;99.90;;;;;;4117868;28;20058;-64
2022/11/07 07:37:31;;;;;;;16.75;2.50;;;12.70;99.90;;;;;;4123493;28;20517;-64
2022/11/07 07:39:32;;;;;;;9.63;2.38;;;12.70;99.90;;;;;;4124058;28;20046;-63
2022/11/07 07:41:32;;;;;;;6.20;1.73;;;12.80;99.90;;;;;;4123773;28;20034;-64
2022/11/07 07:43:33;;;;;;;9.07;1.92;;;12.80;99.90;;;;;;4124389;28;20610;-64
2022/11/07 07:45:34;;;;;;;9.18;2.15;;;12.80;99.90;;;;;;4123828;28;20137;-64
2022/11/07 07:47:34;;;;;;;10.65;1.90;;;12.80;99.90;;;;;;4123213;28;20030;-65
2022/11/07 07:49:35;;;;;;;9.07;2.30;;;12.80;99.90;;;;;;4118135;28;20038;-65
2022/11/07 07:51:35;;;;;;;7.80;2.22;;;12.90;99.90;;;;;;4120590;28;20070;-64
2022/11/07 07:53:36;;;;;;;10.35;2.35;;;12.90;99.90;;;;;;4123960;28;20050;-65
2022/11/07 07:55:37;;;;;;;9.45;2.05;;;12.90;99.90;;;;;;4118857;28;20124;-64
2022/11/07 07:57:41;;;;;;;10.73;2.20;;;12.90;99.90;;;;;;4123469;28;20180;-64
2022/11/07 07:59:42;;;;;;;9.15;1.85;;;12.90;99.90;;;;;;4122499;28;20043;-64
2022/11/07 08:01:43;;;;;;;6.22;1.70;;;13.00;99.90;;;;;;4126406;28;20046;-65
2022/11/07 08:03:43;;;;;;;10.77;2.53;;;13.00;99.90;;;;;;4128073;28;20105;-64
2022/11/07 08:05:44;;;;;;;9.23;2.28;;;13.00;99.90;;;;;;4124876;28;20521;-64
2022/11/07 08:07:49;;;;;;;8.05;2.38;;;13.00;99.90;;;;;;4128258;28;20517;-64
2022/11/07 08:09:50;;;;;;;11.48;2.45;;;13.10;99.90;;;;;;4124000;28;20607;-64
2022/11/07 08:11:50;;;;;;;6.45;2.00;;;13.10;99.90;;;;;;4126841;28;20046;-64
2022/11/07 08:13:51;;;;;;;10.02;2.47;;;13.10;99.90;;;;;;4127311;28;20421;-64
2022/11/07 08:15:52;;;;;;;11.02;2.28;;;13.10;99.90;;;;;;4126071;28;20034;-65
2022/11/07 08:17:53;;;;;;;12.40;2.30;;;13.10;99.90;;;;;;4139286;28;20027;-65
2022/11/07 08:19:53;;;;;;;10.10;2.15;;;13.10;99.90;;;;;;4119818;28;20509;-65
2022/11/07 08:21:54;;;;;;;13.82;2.35;;;13.10;99.90;;;;;;4117098;28;20030;-65
2022/11/07 08:23:55;;;;;;;10.15;2.10;;;13.10;99.90;;;;;;4126637;28;20041;-65
2022/11/07 08:25:58;;;;;;;10.27;2.05;;;13.20;99.90;;;;;;4124426;28;20046;-64
2022/11/07 08:27:59;;;;;;;6.53;1.80;;;13.20;99.90;;;;;;4125073;28;20106;-64
2022/11/07 08:30:00;;;;;;;11.40;1.90;;;13.20;99.90;;;;;;4122606;28;20037;-64
2022/11/07 08:32:00;;;;;;;11.20;2.35;;;13.20;99.90;;;;;;4125386;28;20034;-64
2022/11/07 08:34:01;;;;;;;9.98;2.30;;;13.30;99.90;;;;;;4124013;28;20076;-65
2022/11/07 08:36:04;;;;;;;9.40;2.28;;;13.30;99.90;;;;;;4125160;28;20034;-64
2022/11/07 08:38:05;;;;;;;10.50;2.30;;;13.30;99.90;;;;;;4125643;28;20038;-64
2022/11/07 08:40:06;;;;;;;10.32;2.28;;;13.30;99.90;;;;;;4128641;28;20035;-65
2022/11/07 08:42:07;;;;;;;7.22;2.25;;;13.30;99.90;;;;;;4125242;28;20065;-64
2022/11/07 08:44:08;;;;;;;12.05;2.35;;;13.30;99.90;;;;;;4125475;28;20030;-65
2022/11/07 08:46:09;;;;;;;9.90;1.95;;;13.30;99.90;;;;;;4124219;28;20117;-65
2022/11/07 08:48:10;;;;;;;11.65;2.17;;;13.40;99.90;;;;;;4126113;28;20458;-64
2022/11/07 08:50:10;;;;;;;10.43;2.10;;;13.40;99.90;;;;;;4124893;28;20173;-65
2022/11/07 08:52:11;;;;;;;13.23;2.80;;;13.40;99.90;;;;;;4125400;28;20647;-64
2022/11/07 08:54:11;;;;;;;5.90;1.80;;;13.40;99.90;;;;;;4124101;28;20409;-65
2022/11/07 08:56:12;;;;;;;11.82;2.45;;;13.50;99.90;;;;;;4125099;28;20065;-64
2022/11/07 08:58:13;;;;;;;6.78;2.00;;;13.50;99.90;;;;;;4126644;28;20049;-64
2022/11/07 09:00:14;;;;;;;10.60;2.08;;;13.50;99.90;;;;;;4125095;28;20046;-65
2022/11/07 09:02:15;;;;;;;18.65;2.72;;;13.50;99.90;;;;;;4126117;28;20042;-65
2022/11/07 09:04:15;;;;;;;9.98;2.85;;;13.50;99.90;;;;;;4125185;28;20062;-65
2022/11/07 09:06:17;;;;;;;10.18;2.42;;;13.60;99.90;;;;;;4125174;28;20034;-64
2022/11/07 09:08:18;;;;;;;11.70;2.65;;;13.60;99.90;;;;;;4127178;28;20034;-64
2022/11/07 09:10:19;;;;;;;15.23;2.88;;;13.60;99.90;;;;;;4124670;28;20096;-65
2022/11/07 09:12:19;;;;;;;11.60;3.45;;;13.70;99.90;;;;;;4125922;28;20513;-64
2022/11/07 09:14:20;;;;;;;8.57;3.03;;;13.70;99.90;;;;;;4125227;28;20081;-65
2022/11/07 09:16:22;;;;;;;12.85;2.67;;;13.70;99.90;;;;;;4123856;28;20068;-64
2022/11/07 09:18:23;;;;;;;7.05;2.00;;;13.80;99.90;;;;;;4124859;28;20030;-66
2022/11/07 09:20:23;;;;;;;10.23;2.30;;;13.80;99.90;;;;;;4122913;28;20498;-65
2022/11/07 09:22:24;;;;;;;12.23;2.55;;;13.80;99.90;;;;;;4122749;28;20113;-65
2022/11/07 09:24:24;;;;;;;12.98;2.53;;;13.90;99.90;;;;;;4125947;28;20089;-65
2022/11/07 09:26:25;;;;;;;12.27;2.65;;;13.90;99.90;;;;;;4124808;28;20049;-65
2022/11/07 09:28:26;;;;;;;10.73;2.25;;;13.90;99.90;;;;;;4125535;28;20130;-64
2022/11/07 09:30:26;;;;;;;9.95;2.45;;;14.00;99.90;;;;;;4123390;28;20030;-64
2022/11/07 09:32:27;;;;;;;7.15;2.08;;;13.90;99.90;;;;;;4123844;28;20026;-64
2022/11/07 09:34:27;;;;;;;9.35;2.42;;;13.90;99.90;;;;;;4122507;28;20038;-65
2022/11/07 09:36:28;;;;;;;6.43;1.90;;;14.00;99.90;;;;;;4121988;28;20037;-65
2022/11/07 09:38:29;;;;;;;8.68;2.00;;;14.00;99.90;;;;;;4122723;28;20038;-65
2022/11/07 09:40:50;;;;;;;12.25;2.47;;;14.00;99.90;;;;;;4121944;28;20092;-65
2022/11/07 09:42:59;;;;;;;10.90;2.58;;;14.00;99.90;;;;;;4123878;28;20043;-64
2022/11/07 09:45:01;;;;;;;12.00;2.17;;;14.00;99.90;;;;;;4125332;28;20037;-65
2022/11/07 09:47:21;;;;;;;10.35;2.42;;;14.00;99.90;;;;;;4123283;28;20031;-65
2022/11/07 09:49:25;;;;;;;11.60;2.58;;;14.00;99.90;;;;;;4123251;28;20572;-65
2022/11/07 09:51:38;;;;;;;10.73;2.63;;;13.90;99.90;;;;;;4122397;28;20042;-64
2022/11/07 09:53:43;;;;;;;7.72;1.90;;;13.90;99.90;;;;;;4121461;28;20046;-64
2022/11/07 09:55:53;;;;;;;11.50;2.47;;;13.90;99.90;;;;;;4124902;28;20043;-64
2022/11/07 09:57:59;;;;;;;7.07;2.53;;;13.90;99.90;;;;;;4122658;28;20058;-66
2022/11/07 10:00:09;;;;;;;14.30;2.42;;;13.90;99.90;;;;;;4122376;28;20074;-67
2022/11/07 10:02:19;;;;;;;12.02;2.90;;;13.90;99.90;;;;;;4123219;28;20473;-65
2022/11/07 10:04:22;;;;;;;11.40;2.28;;;13.90;99.90;;;;;;4123441;28;20133;-65
2022/11/07 10:06:27;;;;;;;8.05;2.28;;;13.90;99.90;;;;;;4121369;28;20117;-64
2022/11/07 10:08:40;;;;;;;9.18;2.20;;;13.80;99.90;;;;;;4124184;28;20477;-64
2022/11/07 10:11:05;;;;;;;8.15;2.50;;;13.90;99.90;;;;;;4119904;28;20047;-64
2022/11/07 10:13:37;;;;;;;8.55;2.47;;;13.80;99.90;;;;;;4138319;28;20029;-66
2022/11/07 10:16:00;;;;;;;7.90;2.20;;;13.80;99.90;;;;;;4120154;28;20038;-65
2022/11/07 10:18:36;;;;;;;5.90;1.77;;;13.80;99.90;;;;;;4128507;28;20037;-64
2022/11/07 10:21:02;;;;;;;11.57;2.28;;;13.80;99.90;;;;;;4120307;28;20039;-65
2022/11/07 10:23:12;;;;;;;8.98;2.17;;;13.80;99.90;;;;;;4122620;28;20049;-64
2022/11/07 10:25:15;;;;;;;7.70;1.83;;;13.70;99.90;;;;;;4138138;28;20044;-65
2022/11/07 10:27:16;;;;;;;8.60;1.92;;;13.80;99.90;;;;;;4123009;28;20039;-64
2022/11/07 10:29:19;;;;;;;13.73;2.65;;;13.80;99.90;;;;;;4123696;28;20474;-65
2022/11/07 10:31:20;;;;;;;11.60;2.35;;;13.70;99.90;;;;;;4124009;28;20161;-64
2022/11/07 10:33:43;;;;;;;12.43;2.47;;;13.80;99.90;;;;;;4129225;28;20059;-65
2022/11/07 10:35:57;;;;;;;14.35;3.15;;;13.70;99.90;;;;;;4123163;28;20046;-64
2022/11/07 10:38:00;;;;;;;8.98;2.15;;;13.80;99.90;;;;;;4122942;28;20026;-64
2022/11/07 10:40:01;;;;;;;12.38;2.38;;;13.80;99.90;;;;;;4122644;28;20764;-64
2022/11/07 10:42:10;;;;;;;9.93;2.53;;;13.80;99.90;;;;;;4123932;28;20034;-64
2022/11/07 10:44:18;;;;;;;10.60;2.88;;;13.80;99.90;;;;;;4123240;28;20039;-65
2022/11/07 10:46:26;;;;;;;10.05;2.53;;;13.80;99.90;;;;;;4121522;28;20041;-64
2022/11/07 10:48:28;;;;;;;11.30;2.17;;;13.80;99.90;;;;;;4121760;28;20034;-64
2022/11/07 10:50:29;;;;;;;10.05;2.00;;;13.90;99.90;;;;;;4121744;28;20041;-65